Terminal Aerodrome Forecast
Issued by NWS Greer, SC

Home | Current Version | Previous Version | Text Only | Print | Product List | Glossary On
Versions: 1 2 3 4 5 6 7 8 9 10 11 12
000
FTUS42 KGSP 212339
TAFGSP
TAF
KGSP 212339Z 2200/2224 17004KT P6SM SKC
     FM220400 VRB03KT P6SM SCT250
      TEMPO 2210/2213 4SM BR FEW003
     FM221400 16003KT P6SM BKN070
     FM221800 18006KT P6SM VCSH BKN027
     FM222000 17005KT P6SM OVC008 PROB30 2220/2224 2SM -SHRA OVC004=

USA.gov is the U.S. government's official web portal to all federal, state and local government web resources and services.